createdAt,value
2022-08-11T00:00:39.847Z,1009.94
2022-08-11T00:01:39.841Z,1009.91
2022-08-11T00:02:40.064Z,1009.90
2022-08-11T00:03:43.478Z,1009.90
2022-08-11T00:04:39.801Z,1009.88
2022-08-11T00:05:39.793Z,1009.88
2022-08-11T00:06:39.789Z,1009.88
2022-08-11T00:07:39.773Z,1009.87
2022-08-11T00:08:39.769Z,1009.86
2022-08-11T00:09:40.286Z,1009.85
2022-08-11T00:10:39.734Z,1009.85
2022-08-11T00:11:39.727Z,1009.85
2022-08-11T00:12:39.794Z,1009.84
2022-08-11T00:13:39.703Z,1009.83
2022-08-11T00:14:39.703Z,1009.83
2022-08-11T00:15:39.697Z,1009.82
2022-08-11T00:16:39.681Z,1009.81
2022-08-11T00:17:39.689Z,1009.81
2022-08-11T00:18:39.650Z,1009.81
2022-08-11T00:20:13.392Z,1009.81
2022-08-11T00:20:39.661Z,1009.81
2022-08-11T00:22:04.707Z,1009.83
2022-08-11T00:22:39.969Z,1009.84
2022-08-11T00:23:39.602Z,1009.85
2022-08-11T00:24:52.055Z,1009.85
2022-08-11T00:25:39.583Z,1009.83
2022-08-11T00:26:39.565Z,1009.81
2022-08-11T00:27:39.556Z,1009.82
2022-08-11T00:28:39.546Z,1009.82
2022-08-11T00:29:51.824Z,1009.82
2022-08-11T00:30:39.557Z,1009.82
2022-08-11T00:31:39.514Z,1009.83
2022-08-11T00:32:39.665Z,1009.85
2022-08-11T00:33:44.085Z,1009.87
2022-08-11T00:34:39.490Z,1009.87
2022-08-11T00:35:53.664Z,1009.87
2022-08-11T00:36:39.505Z,1009.87
2022-08-11T00:37:39.459Z,1009.88
2022-08-11T00:38:39.455Z,1009.88
2022-08-11T00:39:39.471Z,1009.89
2022-08-11T00:40:39.421Z,1009.90
2022-08-11T00:41:39.423Z,1009.90
2022-08-11T00:42:39.547Z,1009.91
2022-08-11T00:43:39.407Z,1009.91
2022-08-11T00:44:39.381Z,1009.90
2022-08-11T00:45:39.373Z,1009.89
2022-08-11T00:46:39.370Z,1009.87
2022-08-11T00:47:39.370Z,1009.85
2022-08-11T00:48:39.349Z,1009.85
2022-08-11T00:49:39.340Z,1009.86
2022-08-11T00:50:39.308Z,1009.86
2022-08-11T00:52:03.962Z,1009.86
2022-08-11T00:52:39.595Z,1009.86
2022-08-11T00:53:39.291Z,1009.86
2022-08-11T00:54:39.269Z,1009.85
2022-08-11T00:55:39.270Z,1009.84
2022-08-11T00:56:39.238Z,1009.83
2022-08-11T00:57:39.250Z,1009.84
2022-08-11T00:58:39.242Z,1009.84
2022-08-11T00:59:39.251Z,1009.85
2022-08-11T01:00:39.289Z,1009.86
2022-08-11T01:01:39.204Z,1009.86
2022-08-11T01:02:39.240Z,1009.86
2022-08-11T01:03:39.176Z,1009.86
2022-08-11T01:04:39.163Z,1009.86
2022-08-11T01:05:39.191Z,1009.87
2022-08-11T01:06:39.141Z,1009.86
2022-08-11T01:08:01.838Z,1009.86
2022-08-11T01:08:39.131Z,1009.84
2022-08-11T01:09:39.127Z,1009.85
2022-08-11T05:02:05.625Z,1010.12
2022-08-11T05:03:06.636Z,1010.11
2022-08-11T05:04:06.525Z,1010.11
2022-08-11T05:05:06.523Z,1010.11
2022-08-11T05:06:06.529Z,1010.12
2022-08-11T05:07:06.527Z,1010.12
2022-08-11T05:08:06.494Z,1010.12
2022-08-11T05:09:06.478Z,1010.12
2022-08-11T05:10:06.494Z,1010.14
2022-08-11T05:11:06.504Z,1010.14
2022-08-11T05:12:06.441Z,1010.16
2022-08-11T05:13:06.459Z,1010.15
2022-08-11T05:14:06.427Z,1010.16
2022-08-11T05:15:06.417Z,1010.17
2022-08-11T05:16:06.426Z,1010.17
2022-08-11T05:17:06.402Z,1010.17
2022-08-11T05:18:06.391Z,1010.19
2022-08-11T05:19:12.396Z,1010.18
2022-08-11T05:20:06.392Z,1010.18
2022-08-11T05:21:06.361Z,1010.19
2022-08-11T05:22:06.344Z,1010.19
2022-08-11T05:23:06.330Z,1010.20
2022-08-11T05:24:06.321Z,1010.21
2022-08-11T05:25:06.312Z,1010.22
2022-08-11T05:26:44.927Z,1010.24
2022-08-11T05:27:11.310Z,1010.24
2022-08-11T05:28:06.302Z,1010.26
2022-08-11T05:29:19.271Z,1010.26
2022-08-11T05:30:06.265Z,1010.26
2022-08-11T05:31:06.269Z,1010.27
2022-08-11T05:32:06.262Z,1010.27
2022-08-11T05:33:06.223Z,1010.28
2022-08-11T05:34:06.219Z,1010.27
2022-08-11T05:35:06.202Z,1010.29
2022-08-11T05:36:06.190Z,1010.31
2022-08-11T05:37:25.122Z,1010.32
2022-08-11T05:38:06.180Z,1010.34
2022-08-11T05:39:06.165Z,1010.32
2022-08-11T05:40:06.232Z,1010.33
2022-08-11T05:41:06.147Z,1010.34
2022-08-11T05:42:06.128Z,1010.34
2022-08-11T05:43:06.161Z,1010.35
2022-08-11T05:44:19.933Z,1010.34
2022-08-11T05:45:15.409Z,1010.36
2022-08-11T05:46:09.062Z,1010.36
2022-08-11T05:47:06.086Z,1010.39
2022-08-11T05:48:06.058Z,1010.38
2022-08-11T05:49:06.084Z,1010.39
2022-08-11T05:50:06.047Z,1010.39
2022-08-11T05:51:10.370Z,1010.39
2022-08-11T05:52:14.418Z,1010.39
2022-08-11T05:53:09.112Z,1010.39
2022-08-11T05:54:06.027Z,1010.40
2022-08-11T05:55:07.216Z,1010.41
2022-08-11T05:56:05.990Z,1010.42
2022-08-11T05:57:05.976Z,1010.41
2022-08-11T05:58:05.960Z,1010.42
2022-08-11T05:59:05.958Z,1010.44
2022-08-11T06:00:05.967Z,1010.43
2022-08-11T06:01:06.059Z,1010.44
2022-08-11T06:02:06.155Z,1010.45
2022-08-11T06:03:05.910Z,1010.44
2022-08-11T06:04:05.901Z,1010.44
2022-08-11T06:05:05.887Z,1010.43
2022-08-11T06:06:05.897Z,1010.43
2022-08-11T06:07:05.875Z,1010.43
2022-08-11T06:08:05.862Z,1010.43
2022-08-11T06:09:05.847Z,1010.42
2022-08-11T06:10:05.829Z,1010.44
2022-08-11T06:11:05.815Z,1010.44
2022-08-11T06:12:05.833Z,1010.45
2022-08-11T06:13:05.825Z,1010.43
2022-08-11T06:14:05.814Z,1010.43
2022-08-11T06:15:05.788Z,1010.45
2022-08-11T06:16:07.189Z,1010.46
2022-08-11T06:17:05.764Z,1010.46
2022-08-11T06:18:05.751Z,1010.46
2022-08-11T06:19:05.746Z,1010.47
2022-08-11T06:20:07.407Z,1010.47
2022-08-11T06:21:05.724Z,1010.46
2022-08-11T06:22:05.735Z,1010.46
2022-08-11T06:23:05.717Z,1010.50
2022-08-11T06:24:05.687Z,1010.47
2022-08-11T06:25:05.677Z,1010.43
2022-08-11T06:26:05.685Z,1010.44
2022-08-11T06:27:13.828Z,1010.46
2022-08-11T06:28:05.646Z,1010.44
2022-08-11T06:29:05.685Z,1010.44
2022-08-11T06:30:05.619Z,1010.43
2022-08-11T06:31:05.607Z,1010.41
2022-08-11T06:32:05.600Z,1010.41
2022-08-11T06:33:05.589Z,1010.42
2022-08-11T06:34:05.573Z,1010.40
2022-08-11T06:35:05.577Z,1010.42
2022-08-11T06:36:05.576Z,1010.44
2022-08-11T06:37:05.550Z,1010.42
2022-08-11T06:38:05.549Z,1010.42
2022-08-11T06:39:05.542Z,1010.40
2022-08-11T06:40:05.512Z,1010.40
2022-08-11T06:41:05.523Z,1010.40
2022-08-11T06:42:05.509Z,1010.41
2022-08-11T06:43:05.515Z,1010.42
2022-08-11T06:44:05.677Z,1010.41
2022-08-11T06:45:05.489Z,1010.43
2022-08-11T06:46:05.452Z,1010.44
2022-08-11T06:47:05.440Z,1010.43
2022-08-11T06:48:05.424Z,1010.42
2022-08-11T06:49:05.418Z,1010.42
2022-08-11T06:50:05.432Z,1010.42
2022-08-11T06:51:05.410Z,1010.44
2022-08-11T06:52:05.379Z,1010.43
2022-08-11T06:53:05.381Z,1010.44
2022-08-11T06:54:05.766Z,1010.42
2022-08-11T06:55:05.359Z,1010.41
2022-08-11T06:56:05.365Z,1010.40
2022-08-11T06:58:05.327Z,1010.40
2022-08-11T06:59:05.304Z,1010.39
2022-08-11T07:00:05.304Z,1010.40
2022-08-11T07:01:05.346Z,1010.38
2022-08-11T07:02:05.303Z,1010.38
2022-08-11T07:03:05.264Z,1010.39
2022-08-11T07:04:05.251Z,1010.40
2022-08-11T07:05:05.251Z,1010.40
2022-08-11T07:06:05.234Z,1010.41
2022-08-11T07:07:05.221Z,1010.42
2022-08-11T07:08:33.938Z,1010.41
2022-08-11T07:09:05.210Z,1010.40
2022-08-11T07:10:05.205Z,1010.41
2022-08-11T07:11:05.181Z,1010.42
2022-08-11T07:12:05.194Z,1010.39
2022-08-11T07:13:05.181Z,1010.39
2022-08-11T07:14:05.154Z,1010.39
2022-08-11T07:15:05.148Z,1010.39
2022-08-11T07:16:11.702Z,1010.38
2022-08-11T07:17:05.127Z,1010.38
2022-08-11T07:18:05.140Z,1010.37
2022-08-11T07:19:05.108Z,1010.39
2022-08-11T07:20:05.107Z,1010.39
2022-08-11T07:21:05.078Z,1010.39
2022-08-11T07:22:05.192Z,1010.37
2022-08-11T07:23:05.084Z,1010.38
2022-08-11T07:24:05.071Z,1010.37
2022-08-11T07:25:05.034Z,1010.37
2022-08-11T07:26:05.022Z,1010.38
2022-08-11T07:27:05.009Z,1010.39
2022-08-11T07:28:05.007Z,1010.40
2022-08-11T07:29:04.991Z,1010.38
2022-08-11T07:30:05.005Z,1010.39
2022-08-11T07:31:04.985Z,1010.40
2022-08-11T07:32:04.970Z,1010.37
2022-08-11T07:33:04.953Z,1010.36
2022-08-11T07:34:10.243Z,1010.34
2022-08-11T07:35:04.938Z,1010.33
2022-08-11T07:36:04.962Z,1010.31
2022-08-11T07:37:04.915Z,1010.29
2022-08-11T07:38:07.252Z,1010.29
2022-08-11T07:39:04.890Z,1010.29
2022-08-11T07:40:04.966Z,1010.30
2022-08-11T07:41:04.874Z,1010.29
2022-08-11T07:42:04.880Z,1010.31
2022-08-11T07:43:04.859Z,1010.31
2022-08-11T07:44:04.841Z,1010.29
2022-08-11T07:45:04.826Z,1010.29
2022-08-11T07:46:04.814Z,1010.28
2022-08-11T07:47:04.805Z,1010.30
2022-08-11T07:48:04.808Z,1010.31
2022-08-11T07:49:04.780Z,1010.33
2022-08-11T07:50:04.768Z,1010.30
2022-08-11T07:51:04.766Z,1010.29
2022-08-11T07:52:04.744Z,1010.31
2022-08-11T07:53:04.774Z,1010.25
2022-08-11T07:54:16.558Z,1010.26
2022-08-11T07:55:04.727Z,1010.26
2022-08-11T07:56:04.712Z,1010.25
2022-08-11T07:57:08.893Z,1010.26
2022-08-11T07:58:16.191Z,1010.25
2022-08-11T07:59:08.273Z,1010.27
2022-08-11T08:00:05.176Z,1010.25
2022-08-11T08:01:10.142Z,1010.29
2022-08-11T08:02:04.734Z,1010.29
2022-08-11T08:03:04.652Z,1010.29
2022-08-11T08:04:04.628Z,1010.31
2022-08-11T08:05:04.611Z,1010.30
2022-08-11T08:06:04.608Z,1010.27
2022-08-11T08:07:04.602Z,1010.26
2022-08-11T08:08:04.582Z,1010.26
2022-08-11T08:09:04.586Z,1010.24
2022-08-11T08:10:04.576Z,1010.23
2022-08-11T08:11:04.553Z,1010.24
2022-08-11T08:12:04.532Z,1010.21
2022-08-11T08:13:04.522Z,1010.22
2022-08-11T08:14:04.525Z,1010.24
2022-08-11T08:15:04.527Z,1010.24
2022-08-11T08:16:04.525Z,1010.26
2022-08-11T08:17:04.480Z,1010.27
2022-08-11T08:18:10.098Z,1010.23
2022-08-11T08:19:04.470Z,1010.22
2022-08-11T08:20:04.462Z,1010.25
2022-08-11T08:21:04.448Z,1010.29
2022-08-11T08:22:11.970Z,1010.25
2022-08-11T08:23:04.443Z,1010.27
2022-08-11T08:24:04.416Z,1010.26
2022-08-11T08:25:04.397Z,1010.25
2022-08-11T08:26:04.449Z,1010.26
2022-08-11T08:27:04.375Z,1010.24
2022-08-11T08:28:04.371Z,1010.24
2022-08-11T08:29:04.386Z,1010.24
2022-08-11T08:30:04.347Z,1010.23
2022-08-11T08:31:04.334Z,1010.22
2022-08-11T08:32:04.332Z,1010.21
2022-08-11T08:33:04.314Z,1010.20
2022-08-11T08:34:04.311Z,1010.24
2022-08-11T08:35:04.302Z,1010.22
2022-08-11T08:36:04.301Z,1010.20
2022-08-11T08:37:16.075Z,1010.22
2022-08-11T08:38:04.273Z,1010.24
2022-08-11T08:39:04.257Z,1010.24
2022-08-11T08:40:04.242Z,1010.25
2022-08-11T08:41:04.231Z,1010.23
2022-08-11T08:42:04.237Z,1010.23
2022-08-11T08:43:04.232Z,1010.24
2022-08-11T08:44:27.817Z,1010.23
2022-08-11T08:45:04.193Z,1010.21
2022-08-11T08:46:04.207Z,1010.23
2022-08-11T08:47:04.166Z,1010.19
2022-08-11T08:48:04.155Z,1010.19
2022-08-11T08:49:04.172Z,1010.18
2022-08-11T08:50:04.138Z,1010.18
2022-08-11T08:51:04.119Z,1010.21
2022-08-11T08:52:26.496Z,1010.20
2022-08-11T08:53:04.118Z,1010.19
2022-08-11T08:54:04.091Z,1010.22
2022-08-11T08:55:04.104Z,1010.22
2022-08-11T08:56:04.075Z,1010.20
2022-08-11T08:57:04.080Z,1010.17
2022-08-11T08:58:04.075Z,1010.16
2022-08-11T08:59:04.047Z,1010.14
2022-08-11T09:00:04.028Z,1010.12
2022-08-11T09:01:04.070Z,1010.14
2022-08-11T09:02:04.043Z,1010.11
2022-08-11T09:03:22.815Z,1010.13
2022-08-11T09:04:10.770Z,1010.13
2022-08-11T09:05:04.225Z,1010.12
2022-08-11T09:06:03.969Z,1010.14
2022-08-11T09:07:03.955Z,1010.12
2022-08-11T09:08:03.984Z,1010.13
2022-08-11T09:09:03.941Z,1010.12
2022-08-11T09:10:03.926Z,1010.08
2022-08-11T09:11:03.918Z,1010.10
2022-08-11T09:12:03.911Z,1010.07
2022-08-11T09:13:03.910Z,1010.08
2022-08-11T09:14:05.875Z,1010.10
2022-08-11T09:15:03.870Z,1010.09
2022-08-11T09:16:03.874Z,1010.08
2022-08-11T09:17:03.849Z,1010.06
2022-08-11T09:18:03.875Z,1010.03
2022-08-11T09:19:03.843Z,1010.01
2022-08-11T09:20:03.844Z,1009.99
2022-08-11T09:21:03.813Z,1009.98
2022-08-11T09:22:03.809Z,1009.97
2022-08-11T09:23:54.582Z,1009.94
2022-08-11T09:24:19.187Z,1009.91
2022-08-11T09:25:03.774Z,1009.91
2022-08-11T09:26:03.775Z,1009.91
2022-08-11T09:27:03.743Z,1009.91
2022-08-11T09:28:03.740Z,1009.90
2022-08-11T09:29:03.740Z,1009.89
2022-08-11T09:30:03.720Z,1009.89
2022-08-11T09:31:03.700Z,1009.88
2022-08-11T09:32:03.747Z,1009.86
2022-08-11T09:33:03.705Z,1009.86
2022-08-11T09:34:03.684Z,1009.85
2022-08-11T09:35:03.657Z,1009.85
2022-08-11T09:36:03.654Z,1009.82
2022-08-11T09:37:03.638Z,1009.80
2022-08-11T09:38:03.820Z,1009.78
2022-08-11T09:39:03.630Z,1009.78
2022-08-11T09:40:03.615Z,1009.79
2022-08-11T09:41:03.603Z,1009.73
2022-08-11T09:42:04.290Z,1009.76
2022-08-11T09:43:03.592Z,1009.79
2022-08-11T09:44:04.521Z,1009.78
2022-08-11T09:45:03.568Z,1009.76
2022-08-11T09:46:03.555Z,1009.76
2022-08-11T09:47:03.538Z,1009.73
2022-08-11T09:48:03.528Z,1009.73
2022-08-11T09:49:03.534Z,1009.73
2022-08-11T09:50:03.538Z,1009.73
2022-08-11T09:51:03.500Z,1009.77
2022-08-11T09:52:05.355Z,1009.75
2022-08-11T09:53:37.319Z,1009.75
2022-08-11T09:54:04.171Z,1009.74
2022-08-11T09:55:03.482Z,1009.75
2022-08-11T09:56:03.449Z,1009.72
2022-08-11T09:57:05.457Z,1009.74
2022-08-11T09:58:03.538Z,1009.76
2022-08-11T09:59:03.412Z,1009.74
2022-08-11T10:00:12.340Z,1009.72
2022-08-11T10:01:03.520Z,1009.74
2022-08-11T10:02:03.575Z,1009.70
2022-08-11T10:03:03.371Z,1009.67
2022-08-11T10:04:03.364Z,1009.65
2022-08-11T10:05:03.341Z,1009.62
2022-08-11T10:06:07.774Z,1009.66
2022-08-11T10:07:04.714Z,1009.64
2022-08-11T10:08:03.318Z,1009.59
2022-08-11T10:09:03.309Z,1009.62
2022-08-11T10:10:03.309Z,1009.71
2022-08-11T10:11:03.283Z,1009.69
2022-08-11T10:12:03.305Z,1009.66
2022-08-11T10:13:03.261Z,1009.64
2022-08-11T10:14:33.922Z,1009.69
2022-08-11T10:15:03.247Z,1009.68
2022-08-11T10:16:16.293Z,1009.67
2022-08-11T10:17:03.246Z,1009.64
2022-08-11T10:18:03.220Z,1009.66
2022-08-11T10:19:03.199Z,1009.66
2022-08-11T10:20:05.182Z,1009.62
2022-08-11T10:21:03.188Z,1009.60
2022-08-11T10:22:03.174Z,1009.58
2022-08-11T10:23:03.212Z,1009.57
2022-08-11T10:24:05.750Z,1009.53
2022-08-11T10:25:03.156Z,1009.51
2022-08-11T10:26:03.135Z,1009.52
2022-08-11T10:28:30.674Z,1009.49
2022-08-11T10:29:15.608Z,1009.53
2022-08-11T10:30:15.298Z,1009.53
2022-08-11T10:31:15.270Z,1009.59
2022-08-11T10:32:15.249Z,1009.51
2022-08-11T10:33:36.930Z,1009.46
2022-08-11T10:34:15.249Z,1009.45
2022-08-11T10:35:15.222Z,1009.43
2022-08-11T10:36:16.714Z,1009.43
2022-08-11T10:37:15.382Z,1009.38
2022-08-11T10:38:15.195Z,1009.38
2022-08-11T10:39:15.205Z,1009.38
2022-08-11T10:40:15.181Z,1009.35
2022-08-11T10:41:15.182Z,1009.28
2022-08-11T10:42:30.005Z,1009.25
2022-08-11T10:44:01.408Z,1009.27
2022-08-11T10:44:15.131Z,1009.27
2022-08-11T10:45:15.118Z,1009.28
2022-08-11T10:46:15.097Z,1009.30
2022-08-11T10:47:15.089Z,1009.26
2022-08-11T10:48:15.707Z,1009.28
2022-08-11T10:49:15.075Z,1009.25
2022-08-11T10:50:15.054Z,1009.26
2022-08-11T10:51:15.064Z,1009.23
2022-08-11T10:52:15.064Z,1009.22
2022-08-11T10:53:15.047Z,1009.17
2022-08-11T10:54:15.023Z,1009.20
2022-08-11T10:55:15.012Z,1009.18
2022-08-11T10:56:14.992Z,1009.20
2022-08-11T10:57:14.990Z,1009.13
2022-08-11T10:58:14.998Z,1009.11
2022-08-11T10:59:15.542Z,1009.12
2022-08-11T11:00:14.954Z,1009.11
2022-08-11T11:01:15.050Z,1009.07
2022-08-11T11:02:14.970Z,1009.06
2022-08-11T11:03:22.869Z,1009.01
2022-08-11T11:04:14.933Z,1009.07
2022-08-11T11:05:14.900Z,1009.11
2022-08-11T11:06:28.411Z,1009.04
2022-08-11T11:07:14.882Z,1008.99
2022-08-11T11:08:14.875Z,1008.96
2022-08-11T11:09:14.877Z,1008.93
2022-08-11T11:10:14.960Z,1008.95
2022-08-11T11:11:18.264Z,1008.90
2022-08-11T11:12:14.843Z,1008.88
2022-08-11T11:13:14.813Z,1008.88
2022-08-11T11:14:14.855Z,1008.85
2022-08-11T11:15:17.538Z,1008.81
2022-08-11T11:16:14.791Z,1008.83
2022-08-11T11:17:14.775Z,1008.86
2022-08-11T11:18:14.762Z,1008.80
2022-08-11T11:19:14.754Z,1008.82
2022-08-11T11:20:37.003Z,1008.82
2022-08-11T11:21:14.745Z,1008.81
2022-08-11T11:22:14.725Z,1008.87
2022-08-11T11:23:14.714Z,1008.94
2022-08-11T11:24:20.713Z,1008.95
2022-08-11T11:25:14.688Z,1008.89
2022-08-11T11:26:14.707Z,1008.85
2022-08-11T11:27:14.669Z,1008.84
2022-08-11T11:28:14.661Z,1008.80
2022-08-11T11:29:14.648Z,1008.83
2022-08-11T11:30:14.642Z,1008.79
2022-08-11T11:31:15.792Z,1008.78
2022-08-11T11:32:14.648Z,1008.76
2022-08-11T11:33:14.610Z,1008.72
2022-08-11T11:34:14.599Z,1008.71
2022-08-11T11:35:14.589Z,1008.68
2022-08-11T11:36:14.582Z,1008.69
2022-08-11T11:37:14.595Z,1008.69
2022-08-11T11:38:14.565Z,1008.62
2022-08-11T11:39:14.592Z,1008.63
2022-08-11T11:40:14.542Z,1008.56
2022-08-11T11:41:14.554Z,1008.58
2022-08-11T11:42:14.513Z,1008.62
2022-08-11T11:43:14.527Z,1008.61
2022-08-11T11:44:14.500Z,1008.60
2022-08-11T11:45:23.776Z,1008.58
2022-08-11T11:46:14.485Z,1008.51
2022-08-11T11:47:14.473Z,1008.51
2022-08-11T11:48:14.461Z,1008.49
2022-08-11T11:49:17.051Z,1008.44
2022-08-11T11:50:14.435Z,1008.46
2022-08-11T11:51:14.419Z,1008.47
2022-08-11T11:52:14.419Z,1008.47
2022-08-11T11:53:14.424Z,1008.43
2022-08-11T11:54:14.851Z,1008.40
2022-08-11T11:55:14.453Z,1008.39
2022-08-11T11:56:14.379Z,1008.36
2022-08-11T11:57:14.367Z,1008.32
2022-08-11T11:58:16.014Z,1008.37
2022-08-11T11:59:14.635Z,1008.29
2022-08-11T12:00:14.336Z,1008.30
2022-08-11T12:01:14.348Z,1008.30
2022-08-11T12:02:14.318Z,1008.33
2022-08-11T12:03:14.415Z,1008.30
2022-08-11T12:04:14.306Z,1008.25
2022-08-11T12:05:14.280Z,1008.25
2022-08-11T12:06:14.475Z,1008.22
2022-08-11T12:07:14.278Z,1008.22
2022-08-11T12:08:14.291Z,1008.24
2022-08-11T12:09:14.241Z,1008.18
2022-08-11T12:10:14.231Z,1008.17
2022-08-11T12:11:14.217Z,1008.20
2022-08-11T12:12:14.220Z,1008.27
2022-08-11T12:13:14.202Z,1008.20
2022-08-11T12:14:14.222Z,1008.16
2022-08-11T12:15:14.206Z,1008.09
2022-08-11T12:16:33.391Z,1008.24
2022-08-11T12:17:14.175Z,1008.20
2022-08-11T12:18:14.204Z,1008.18
2022-08-11T12:19:14.147Z,1008.15
2022-08-11T12:20:31.515Z,1008.12
2022-08-11T12:21:14.134Z,1008.06
2022-08-11T12:22:14.123Z,1008.01
2022-08-11T12:23:14.712Z,1008.00
2022-08-11T12:24:14.112Z,1007.98
2022-08-11T12:25:14.068Z,1007.95
2022-08-11T12:26:26.791Z,1007.96
2022-08-11T12:27:16.049Z,1007.96
2022-08-11T12:28:14.058Z,1008.00
2022-08-11T12:29:14.038Z,1008.02
2022-08-11T12:30:14.075Z,1008.03
2022-08-11T12:31:14.015Z,1008.06
2022-08-11T12:32:14.014Z,1008.02
2022-08-11T12:33:13.995Z,1008.02
2022-08-11T12:34:14.005Z,1008.01
2022-08-11T12:35:13.991Z,1007.96
2022-08-11T12:36:14.017Z,1007.93
2022-08-11T12:37:14.094Z,1007.91
2022-08-11T12:38:13.958Z,1007.88
2022-08-11T12:39:23.206Z,1007.92
2022-08-11T12:40:43.256Z,1007.87
2022-08-11T12:41:18.641Z,1007.85
2022-08-11T12:42:13.913Z,1007.76
2022-08-11T12:43:21.205Z,1007.78
2022-08-11T12:44:13.913Z,1007.80
2022-08-11T12:45:22.318Z,1007.76
2022-08-11T12:46:13.878Z,1007.81
2022-08-11T12:47:13.871Z,1007.84
2022-08-11T12:49:00.001Z,1007.75
2022-08-11T12:49:13.851Z,1007.75
2022-08-11T12:50:22.688Z,1007.78
2022-08-11T12:51:13.829Z,1007.75
2022-08-11T12:52:15.772Z,1007.72
2022-08-11T12:53:13.851Z,1007.73
2022-08-11T12:54:13.787Z,1007.68
2022-08-11T12:55:14.138Z,1007.64
2022-08-11T12:56:13.778Z,1007.68
2022-08-11T12:57:13.800Z,1007.67
2022-08-11T12:58:13.770Z,1007.66
2022-08-11T12:59:13.733Z,1007.69
2022-08-11T13:00:13.728Z,1007.74
2022-08-11T13:01:13.766Z,1007.75
2022-08-11T13:02:13.718Z,1007.69
2022-08-11T13:03:13.753Z,1007.64
2022-08-11T13:04:13.779Z,1007.63
2022-08-11T13:05:13.672Z,1007.62
2022-08-11T13:06:13.689Z,1007.67
2022-08-11T13:07:13.665Z,1007.66
2022-08-11T13:08:13.647Z,1007.63
2022-08-11T13:09:13.654Z,1007.60
2022-08-11T13:10:16.813Z,1007.59
2022-08-11T13:11:13.611Z,1007.57
2022-08-11T13:12:13.630Z,1007.58
2022-08-11T13:13:52.763Z,1007.55
2022-08-11T13:14:15.174Z,1007.52
2022-08-11T13:15:13.577Z,1007.50
2022-08-11T13:16:13.554Z,1007.48
2022-08-11T13:17:13.594Z,1007.48
2022-08-11T13:18:13.541Z,1007.53
2022-08-11T13:19:13.532Z,1007.52
2022-08-11T13:20:13.528Z,1007.51
2022-08-11T13:21:20.561Z,1007.49
2022-08-11T13:22:13.515Z,1007.56
2022-08-11T13:23:13.510Z,1007.55
2022-08-11T13:24:13.569Z,1007.50
2022-08-11T13:25:15.030Z,1007.48
2022-08-11T13:26:13.457Z,1007.49
2022-08-11T13:27:13.460Z,1007.47
2022-08-11T13:28:13.447Z,1007.47
2022-08-11T13:29:13.437Z,1007.44
2022-08-11T13:30:13.459Z,1007.47
2022-08-11T13:31:13.417Z,1007.42
2022-08-11T13:32:13.413Z,1007.43
2022-08-11T13:33:13.405Z,1007.36
2022-08-11T13:34:13.421Z,1007.45
2022-08-11T13:35:13.371Z,1007.41
2022-08-11T13:36:13.407Z,1007.36
2022-08-11T13:37:13.359Z,1007.36
2022-08-11T13:38:19.381Z,1007.32
2022-08-11T13:39:13.465Z,1007.31
2022-08-11T13:40:13.318Z,1007.29
2022-08-11T13:41:13.329Z,1007.29
2022-08-11T13:42:13.324Z,1007.28
2022-08-11T13:43:13.288Z,1007.28
2022-08-11T13:44:15.932Z,1007.23
2022-08-11T13:45:13.299Z,1007.20
2022-08-11T13:46:13.274Z,1007.19
2022-08-11T13:47:13.255Z,1007.18
2022-08-11T13:48:13.262Z,1007.20
2022-08-11T13:49:13.235Z,1007.21
2022-08-11T13:50:13.568Z,1007.16
2022-08-11T13:51:13.235Z,1007.09
2022-08-11T13:52:13.223Z,1007.12
2022-08-11T13:53:13.199Z,1007.10
2022-08-11T13:54:13.189Z,1007.08
2022-08-11T13:55:45.128Z,1007.06
2022-08-11T13:56:13.176Z,1007.05
2022-08-11T13:57:13.777Z,1007.03
2022-08-11T13:58:20.551Z,1007.02
2022-08-11T13:59:13.147Z,1006.99
2022-08-11T14:00:25.000Z,1007.00
2022-08-11T14:02:20.369Z,1007.02
2022-08-11T14:02:31.191Z,1007.01
2022-08-11T14:03:13.146Z,1006.97
2022-08-11T14:04:29.815Z,1006.98
2022-08-11T14:05:13.091Z,1007.00
2022-08-11T14:06:13.076Z,1006.96
2022-08-11T14:07:13.055Z,1006.99
2022-08-11T14:08:37.443Z,1006.98
2022-08-11T14:09:13.046Z,1006.92
2022-08-11T14:10:13.344Z,1006.91
2022-08-11T14:12:19.847Z,1006.87
2022-08-11T14:12:27.794Z,1006.85
2022-08-11T14:13:13.005Z,1006.81
2022-08-11T14:14:12.995Z,1006.77
2022-08-11T14:15:12.977Z,1006.76
2022-08-11T14:16:12.984Z,1006.71
2022-08-11T14:17:12.965Z,1006.65
2022-08-11T14:18:12.968Z,1006.76
2022-08-11T14:19:12.935Z,1006.74
2022-08-11T14:20:38.199Z,1006.73
2022-08-11T14:21:12.924Z,1006.74
2022-08-11T14:22:12.916Z,1006.71
2022-08-11T14:23:12.918Z,1006.67
2022-08-11T14:24:13.093Z,1006.69
2022-08-11T14:25:12.879Z,1006.71
2022-08-11T14:26:12.873Z,1006.76
2022-08-11T14:28:29.480Z,1006.73
2022-08-11T14:28:44.513Z,1006.75
2022-08-11T14:29:12.916Z,1006.72
2022-08-11T14:30:12.846Z,1006.71
2022-08-11T14:31:12.826Z,1006.68
2022-08-11T14:32:12.815Z,1006.74
2022-08-11T14:33:17.047Z,1006.77
2022-08-11T14:34:12.801Z,1006.71
2022-08-11T14:35:12.794Z,1006.66
2022-08-11T14:36:12.809Z,1006.66
2022-08-11T14:37:12.771Z,1006.65
2022-08-11T14:38:12.753Z,1006.67
2022-08-11T14:39:13.184Z,1006.64
2022-08-11T14:40:12.756Z,1006.60
2022-08-11T14:41:12.786Z,1006.55
2022-08-11T14:42:13.336Z,1006.54
2022-08-11T14:43:12.701Z,1006.53
2022-08-11T14:44:14.785Z,1006.51
2022-08-11T14:45:12.700Z,1006.48
2022-08-11T14:46:12.705Z,1006.48
2022-08-11T14:47:24.046Z,1006.43
2022-08-11T14:48:12.671Z,1006.47
2022-08-11T14:49:12.674Z,1006.43
2022-08-11T14:50:12.873Z,1006.40
2022-08-11T14:51:12.636Z,1006.34
2022-08-11T14:52:12.681Z,1006.32
2022-08-11T14:53:16.071Z,1006.38
2022-08-11T14:54:12.629Z,1006.34
2022-08-11T14:55:12.602Z,1006.36
2022-08-11T14:56:12.754Z,1006.36
2022-08-11T14:57:12.585Z,1006.36
2022-08-11T14:58:12.569Z,1006.34
2022-08-11T14:59:12.583Z,1006.35
2022-08-11T15:00:12.537Z,1006.31
2022-08-11T15:01:12.608Z,1006.35
2022-08-11T15:02:12.527Z,1006.29
2022-08-11T15:03:13.496Z,1006.27
2022-08-11T15:04:34.621Z,1006.24
2022-08-11T15:05:12.540Z,1006.27
2022-08-11T15:06:12.483Z,1006.24
2022-08-11T15:07:17.090Z,1006.23
2022-08-11T15:08:12.479Z,1006.25
2022-08-11T15:09:12.470Z,1006.27
2022-08-11T15:10:13.739Z,1006.22
2022-08-11T15:11:12.483Z,1006.22
2022-08-11T15:12:32.271Z,1006.17
2022-08-11T15:13:12.434Z,1006.18
2022-08-11T15:14:12.422Z,1006.23
2022-08-11T15:15:12.431Z,1006.21
2022-08-11T15:16:12.395Z,1006.20
2022-08-11T15:17:12.417Z,1006.18
2022-08-11T15:18:12.374Z,1006.16
2022-08-11T15:19:12.365Z,1006.11
2022-08-11T15:20:12.355Z,1006.09
2022-08-11T15:21:12.364Z,1006.13
2022-08-11T15:22:12.372Z,1006.09
2022-08-11T15:23:12.362Z,1006.13
2022-08-11T15:24:12.322Z,1006.10
2022-08-11T15:25:12.326Z,1006.06
2022-08-11T15:26:12.301Z,1006.06
2022-08-11T15:27:12.286Z,1006.10
2022-08-11T15:28:12.309Z,1006.07
2022-08-11T15:29:12.273Z,1006.03
2022-08-11T15:30:20.209Z,1006.01
2022-08-11T15:31:12.261Z,1006.00
2022-08-11T15:32:12.238Z,1006.02
2022-08-11T15:33:12.235Z,1006.01
2022-08-11T15:34:12.249Z,1005.97
2022-08-11T15:35:12.212Z,1005.94
2022-08-11T15:36:12.212Z,1005.91
2022-08-11T15:37:12.198Z,1005.92
2022-08-11T15:38:12.193Z,1005.87
2022-08-11T15:39:19.305Z,1005.88
2022-08-11T15:40:31.970Z,1005.88
2022-08-11T15:41:12.237Z,1005.83
2022-08-11T15:42:12.137Z,1005.85
2022-08-11T15:43:12.826Z,1005.81
2022-08-11T15:44:12.126Z,1005.81
2022-08-11T15:45:12.122Z,1005.83
2022-08-11T15:46:12.121Z,1005.88
2022-08-11T15:47:12.125Z,1005.88
2022-08-11T15:48:12.086Z,1005.90
2022-08-11T15:49:12.090Z,1005.90
2022-08-11T15:50:13.848Z,1005.92
2022-08-11T15:51:12.071Z,1005.94
2022-08-11T15:52:12.052Z,1005.94
2022-08-11T15:53:12.064Z,1005.95
2022-08-11T15:54:12.039Z,1005.93
2022-08-11T15:55:12.027Z,1005.94
2022-08-11T15:56:12.014Z,1005.91
2022-08-11T15:57:12.021Z,1005.94
2022-08-11T15:58:12.012Z,1005.93
2022-08-11T15:59:41.191Z,1005.92